Terminal Aerodrome Forecast
Issued by NWS Kansas City/Pleasant Hill, MO

Home | Current Version | Previous Version | Text Only | Print | Product List | Glossary On
Versions: 1 2 3 4 5 6 7 8 9 10 11 12 13 14 15 16 17 18
000
FTUS43 KEAX 270520
TAFMCI
TAF
KMCI 270520Z 2706/2806 33010KT P6SM OVC030
     FM271400 31007KT P6SM SCT035
     FM271600 27006KT P6SM FEW200
     FM272000 22006KT P6SM BKN100
     FM280300 09006KT P6SM BKN050=

USA.gov is the U.S. government's official web portal to all federal, state and local government web resources and services.